sensor_id;sensor_type;location;lat;lon;timestamp;temperature;humidity
36690;DHT22;22676;51.120;3.702;2023-07-02T00:01:46;26.80;49.10
36690;DHT22;22676;51.120;3.702;2023-07-02T00:04:13;26.90;49.10
36690;DHT22;22676;51.120;3.702;2023-07-02T00:06:42;26.90;49.10
36690;DHT22;22676;51.120;3.702;2023-07-02T00:09:09;26.90;49.10
36690;DHT22;22676;51.120;3.702;2023-07-02T00:11:40;26.90;49.00
36690;DHT22;22676;51.120;3.702;2023-07-02T00:14:07;26.90;49.00
36690;DHT22;22676;51.120;3.702;2023-07-02T00:16:33;26.90;49.00
36690;DHT22;22676;51.120;3.702;2023-07-02T00:18:58;26.90;49.10
36690;DHT22;22676;51.120;3.702;2023-07-02T00:21:26;26.80;49.00
36690;DHT22;22676;51.120;3.702;2023-07-02T00:23:54;26.90;49.00
36690;DHT22;22676;51.120;3.702;2023-07-02T00:26:23;26.90;49.10
36690;DHT22;22676;51.120;3.702;2023-07-02T00:28:51;26.80;49.10
36690;DHT22;22676;51.120;3.702;2023-07-02T00:31:17;26.80;49.20
36690;DHT22;22676;51.120;3.702;2023-07-02T00:33:42;26.80;49.10
36690;DHT22;22676;51.120;3.702;2023-07-02T00:36:08;26.80;49.30
36690;DHT22;22676;51.120;3.702;2023-07-02T00:38:41;26.80;49.00
36690;DHT22;22676;51.120;3.702;2023-07-02T00:41:08;26.90;49.00
36690;DHT22;22676;51.120;3.702;2023-07-02T00:43:34;26.90;48.80
36690;DHT22;22676;51.120;3.702;2023-07-02T00:45:59;26.80;49.00
36690;DHT22;22676;51.120;3.702;2023-07-02T00:48:25;26.70;49.10
36690;DHT22;22676;51.120;3.702;2023-07-02T00:50:52;26.70;49.10
36690;DHT22;22676;51.120;3.702;2023-07-02T00:53:18;26.80;49.10
36690;DHT22;22676;51.120;3.702;2023-07-02T00:55:43;26.90;49.00
36690;DHT22;22676;51.120;3.702;2023-07-02T00:58:09;26.80;49.00
36690;DHT22;22676;51.120;3.702;2023-07-02T01:00:35;26.90;49.10
36690;DHT22;22676;51.120;3.702;2023-07-02T01:03:01;26.80;49.10
36690;DHT22;22676;51.120;3.702;2023-07-02T01:05:28;26.70;49.30
36690;DHT22;22676;51.120;3.702;2023-07-02T01:08:07;26.70;49.20
36690;DHT22;22676;51.120;3.702;2023-07-02T01:10:33;26.70;49.30
36690;DHT22;22676;51.120;3.702;2023-07-02T01:13:04;26.60;49.40
36690;DHT22;22676;51.120;3.702;2023-07-02T01:15:31;26.60;49.50
36690;DHT22;22676;51.120;3.702;2023-07-02T01:17:57;26.50;49.60
36690;DHT22;22676;51.120;3.702;2023-07-02T01:20:24;26.50;49.60
36690;DHT22;22676;51.120;3.702;2023-07-02T01:22:50;26.50;49.70
36690;DHT22;22676;51.120;3.702;2023-07-02T01:25:19;26.40;49.80
36690;DHT22;22676;51.120;3.702;2023-07-02T01:27:50;26.50;49.90
36690;DHT22;22676;51.120;3.702;2023-07-02T01:30:17;26.40;50.00
36690;DHT22;22676;51.120;3.702;2023-07-02T01:32:42;26.30;50.00
36690;DHT22;22676;51.120;3.702;2023-07-02T01:35:08;26.30;50.00
36690;DHT22;22676;51.120;3.702;2023-07-02T01:37:34;26.20;50.10
36690;DHT22;22676;51.120;3.702;2023-07-02T01:40:03;26.20;50.00
36690;DHT22;22676;51.120;3.702;2023-07-02T01:42:31;26.20;50.00
36690;DHT22;22676;51.120;3.702;2023-07-02T01:44:57;26.10;50.20
36690;DHT22;22676;51.120;3.702;2023-07-02T01:47:23;26.00;50.40
36690;DHT22;22676;51.120;3.702;2023-07-02T01:49:50;26.00;50.50
36690;DHT22;22676;51.120;3.702;2023-07-02T01:52:16;26.00;50.50
36690;DHT22;22676;51.120;3.702;2023-07-02T01:54:42;26.00;50.40
36690;DHT22;22676;51.120;3.702;2023-07-02T01:57:08;26.00;50.50
36690;DHT22;22676;51.120;3.702;2023-07-02T01:59:34;26.00;50.40
36690;DHT22;22676;51.120;3.702;2023-07-02T02:02:00;26.00;50.40
36690;DHT22;22676;51.120;3.702;2023-07-02T02:04:25;26.00;50.40
36690;DHT22;22676;51.120;3.702;2023-07-02T02:06:51;26.00;50.40
36690;DHT22;22676;51.120;3.702;2023-07-02T02:09:17;26.00;50.50
36690;DHT22;22676;51.120;3.702;2023-07-02T02:11:45;26.00;50.40
36690;DHT22;22676;51.120;3.702;2023-07-02T02:14:11;26.00;50.50
36690;DHT22;22676;51.120;3.702;2023-07-02T02:16:37;25.90;50.50
36690;DHT22;22676;51.120;3.702;2023-07-02T02:19:03;25.90;50.60
36690;DHT22;22676;51.120;3.702;2023-07-02T02:21:29;25.90;50.60
36690;DHT22;22676;51.120;3.702;2023-07-02T02:23:55;25.90;50.60
36690;DHT22;22676;51.120;3.702;2023-07-02T02:26:21;25.90;50.60
36690;DHT22;22676;51.120;3.702;2023-07-02T02:28:48;25.80;50.60
36690;DHT22;22676;51.120;3.702;2023-07-02T02:31:14;25.80;50.60
36690;DHT22;22676;51.120;3.702;2023-07-02T02:33:40;25.80;50.80
36690;DHT22;22676;51.120;3.702;2023-07-02T02:36:06;25.70;50.70
36690;DHT22;22676;51.120;3.702;2023-07-02T02:38:31;25.80;50.80
36690;DHT22;22676;51.120;3.702;2023-07-02T02:40:57;25.70;50.70
36690;DHT22;22676;51.120;3.702;2023-07-02T02:43:23;25.70;50.60
36690;DHT22;22676;51.120;3.702;2023-07-02T02:45:49;25.60;50.70
36690;DHT22;22676;51.120;3.702;2023-07-02T02:48:14;25.60;50.80
36690;DHT22;22676;51.120;3.702;2023-07-02T02:50:40;25.50;50.80
36690;DHT22;22676;51.120;3.702;2023-07-02T02:53:07;25.60;50.80
36690;DHT22;22676;51.120;3.702;2023-07-02T02:55:33;25.60;50.70
36690;DHT22;22676;51.120;3.702;2023-07-02T02:57:58;25.60;50.70
36690;DHT22;22676;51.120;3.702;2023-07-02T03:00:25;25.60;50.80
36690;DHT22;22676;51.120;3.702;2023-07-02T03:02:50;25.60;50.80
36690;DHT22;22676;51.120;3.702;2023-07-02T03:05:16;25.60;50.90
36690;DHT22;22676;51.120;3.702;2023-07-02T03:07:42;25.50;50.90
36690;DHT22;22676;51.120;3.702;2023-07-02T03:10:08;25.60;50.90
36690;DHT22;22676;51.120;3.702;2023-07-02T03:12:34;25.50;51.00
36690;DHT22;22676;51.120;3.702;2023-07-02T03:14:59;25.50;51.00
36690;DHT22;22676;51.120;3.702;2023-07-02T03:17:25;25.50;51.00
36690;DHT22;22676;51.120;3.702;2023-07-02T03:19:51;25.50;51.00
36690;DHT22;22676;51.120;3.702;2023-07-02T03:22:17;25.50;50.80
36690;DHT22;22676;51.120;3.702;2023-07-02T03:24:42;25.50;50.90
36690;DHT22;22676;51.120;3.702;2023-07-02T03:27:08;25.50;51.00
36690;DHT22;22676;51.120;3.702;2023-07-02T03:29:34;25.50;51.00
36690;DHT22;22676;51.120;3.702;2023-07-02T03:32:01;25.50;51.00
36690;DHT22;22676;51.120;3.702;2023-07-02T03:34:26;25.50;51.10
36690;DHT22;22676;51.120;3.702;2023-07-02T03:36:52;25.50;51.10
36690;DHT22;22676;51.120;3.702;2023-07-02T03:39:18;25.40;51.00
36690;DHT22;22676;51.120;3.702;2023-07-02T03:41:44;25.50;50.90
36690;DHT22;22676;51.120;3.702;2023-07-02T03:44:10;25.40;50.80
36690;DHT22;22676;51.120;3.702;2023-07-02T03:46:36;25.40;50.90
36690;DHT22;22676;51.120;3.702;2023-07-02T03:49:05;25.40;50.90
36690;DHT22;22676;51.120;3.702;2023-07-02T03:51:31;25.40;51.00
36690;DHT22;22676;51.120;3.702;2023-07-02T03:53:58;25.40;51.50
36690;DHT22;22676;51.120;3.702;2023-07-02T03:56:24;25.40;50.90
36690;DHT22;22676;51.120;3.702;2023-07-02T03:58:50;25.40;50.90
36690;DHT22;22676;51.120;3.702;2023-07-02T04:01:15;25.40;50.90
36690;DHT22;22676;51.120;3.702;2023-07-02T04:03:48;25.40;51.00
36690;DHT22;22676;51.120;3.702;2023-07-02T04:06:14;25.40;50.90
36690;DHT22;22676;51.120;3.702;2023-07-02T04:08:41;25.40;51.10
36690;DHT22;22676;51.120;3.702;2023-07-02T04:11:06;25.40;51.10
36690;DHT22;22676;51.120;3.702;2023-07-02T04:13:32;25.40;51.20
36690;DHT22;22676;51.120;3.702;2023-07-02T04:15:58;25.40;51.20
36690;DHT22;22676;51.120;3.702;2023-07-02T04:18:23;25.30;51.20
36690;DHT22;22676;51.120;3.702;2023-07-02T04:20:49;25.30;51.10
36690;DHT22;22676;51.120;3.702;2023-07-02T04:23:15;25.30;51.10
36690;DHT22;22676;51.120;3.702;2023-07-02T04:25:41;25.30;51.20
36690;DHT22;22676;51.120;3.702;2023-07-02T04:28:07;25.30;51.20
36690;DHT22;22676;51.120;3.702;2023-07-02T04:30:32;25.30;51.20
36690;DHT22;22676;51.120;3.702;2023-07-02T04:32:58;25.30;51.20
36690;DHT22;22676;51.120;3.702;2023-07-02T04:35:24;25.30;51.20
36690;DHT22;22676;51.120;3.702;2023-07-02T04:37:49;25.30;51.20
36690;DHT22;22676;51.120;3.702;2023-07-02T04:40:15;25.30;51.10
36690;DHT22;22676;51.120;3.702;2023-07-02T04:42:42;25.20;51.00
36690;DHT22;22676;51.120;3.702;2023-07-02T04:45:12;25.20;50.90
36690;DHT22;22676;51.120;3.702;2023-07-02T04:47:38;25.20;50.80
36690;DHT22;22676;51.120;3.702;2023-07-02T04:50:05;25.20;51.00
36690;DHT22;22676;51.120;3.702;2023-07-02T04:52:33;25.30;51.10
36690;DHT22;22676;51.120;3.702;2023-07-02T04:54:59;25.20;51.00
36690;DHT22;22676;51.120;3.702;2023-07-02T04:57:25;25.20;51.00
36690;DHT22;22676;51.120;3.702;2023-07-02T04:59:50;25.20;51.00
36690;DHT22;22676;51.120;3.702;2023-07-02T05:02:16;25.20;51.10
36690;DHT22;22676;51.120;3.702;2023-07-02T05:04:41;25.20;51.10
36690;DHT22;22676;51.120;3.702;2023-07-02T05:07:07;25.30;51.10
36690;DHT22;22676;51.120;3.702;2023-07-02T05:09:33;25.20;51.10
36690;DHT22;22676;51.120;3.702;2023-07-02T05:11:58;25.30;51.20
36690;DHT22;22676;51.120;3.702;2023-07-02T05:14:24;25.30;51.00
36690;DHT22;22676;51.120;3.702;2023-07-02T05:16:50;25.30;51.10
36690;DHT22;22676;51.120;3.702;2023-07-02T05:19:16;25.30;51.00
36690;DHT22;22676;51.120;3.702;2023-07-02T05:21:41;25.30;51.00
36690;DHT22;22676;51.120;3.702;2023-07-02T05:24:08;25.30;51.10
36690;DHT22;22676;51.120;3.702;2023-07-02T05:26:34;25.30;51.00
36690;DHT22;22676;51.120;3.702;2023-07-02T05:29:01;25.30;51.00
36690;DHT22;22676;51.120;3.702;2023-07-02T05:31:26;25.30;51.00
36690;DHT22;22676;51.120;3.702;2023-07-02T05:33:53;25.30;50.90
36690;DHT22;22676;51.120;3.702;2023-07-02T05:36:19;25.30;50.90
36690;DHT22;22676;51.120;3.702;2023-07-02T05:38:45;25.30;50.60
36690;DHT22;22676;51.120;3.702;2023-07-02T05:41:11;25.20;50.50
36690;DHT22;22676;51.120;3.702;2023-07-02T05:43:36;25.20;50.50
36690;DHT22;22676;51.120;3.702;2023-07-02T05:46:02;25.20;50.40
36690;DHT22;22676;51.120;3.702;2023-07-02T05:48:27;25.20;50.40
36690;DHT22;22676;51.120;3.702;2023-07-02T05:50:53;25.20;50.60
36690;DHT22;22676;51.120;3.702;2023-07-02T05:53:20;25.20;50.60
36690;DHT22;22676;51.120;3.702;2023-07-02T05:55:45;25.20;50.70
36690;DHT22;22676;51.120;3.702;2023-07-02T05:58:12;25.20;50.70
36690;DHT22;22676;51.120;3.702;2023-07-02T06:00:38;25.20;50.70
36690;DHT22;22676;51.120;3.702;2023-07-02T06:03:06;25.20;50.80
36690;DHT22;22676;51.120;3.702;2023-07-02T06:05:32;25.20;50.80
36690;DHT22;22676;51.120;3.702;2023-07-02T06:07:58;25.20;50.90
36690;DHT22;22676;51.120;3.702;2023-07-02T06:10:24;25.20;50.80
36690;DHT22;22676;51.120;3.702;2023-07-02T06:12:49;25.20;50.80
36690;DHT22;22676;51.120;3.702;2023-07-02T06:15:15;25.30;50.60
36690;DHT22;22676;51.120;3.702;2023-07-02T06:17:41;25.40;50.50
36690;DHT22;22676;51.120;3.702;2023-07-02T06:20:07;25.30;50.50
36690;DHT22;22676;51.120;3.702;2023-07-02T06:22:33;25.30;50.50
36690;DHT22;22676;51.120;3.702;2023-07-02T06:24:59;25.30;50.60
36690;DHT22;22676;51.120;3.702;2023-07-02T06:27:24;25.30;50.70
36690;DHT22;22676;51.120;3.702;2023-07-02T06:29:50;25.30;51.00
36690;DHT22;22676;51.120;3.702;2023-07-02T06:32:17;25.30;51.00
36690;DHT22;22676;51.120;3.702;2023-07-02T06:34:43;25.30;51.00
36690;DHT22;22676;51.120;3.702;2023-07-02T06:37:09;25.30;51.10
36690;DHT22;22676;51.120;3.702;2023-07-02T06:39:34;25.30;50.80
36690;DHT22;22676;51.120;3.702;2023-07-02T06:42:00;25.20;50.80
36690;DHT22;22676;51.120;3.702;2023-07-02T06:44:25;25.20;51.00
36690;DHT22;22676;51.120;3.702;2023-07-02T06:46:51;25.30;51.20
36690;DHT22;22676;51.120;3.702;2023-07-02T06:49:17;25.30;51.20
36690;DHT22;22676;51.120;3.702;2023-07-02T06:51:42;25.30;51.20
36690;DHT22;22676;51.120;3.702;2023-07-02T06:54:08;25.30;51.30
36690;DHT22;22676;51.120;3.702;2023-07-02T06:56:34;25.30;51.30
36690;DHT22;22676;51.120;3.702;2023-07-02T06:59:00;25.30;51.30
36690;DHT22;22676;51.120;3.702;2023-07-02T07:01:26;25.30;51.20
36690;DHT22;22676;51.120;3.702;2023-07-02T07:03:52;25.40;51.20
36690;DHT22;22676;51.120;3.702;2023-07-02T07:06:18;25.40;51.10
36690;DHT22;22676;51.120;3.702;2023-07-02T07:08:43;25.40;51.20
36690;DHT22;22676;51.120;3.702;2023-07-02T07:11:09;25.40;51.10
36690;DHT22;22676;51.120;3.702;2023-07-02T07:13:35;25.40;51.00
36690;DHT22;22676;51.120;3.702;2023-07-02T07:16:00;25.40;51.00
36690;DHT22;22676;51.120;3.702;2023-07-02T07:18:26;25.40;51.00
36690;DHT22;22676;51.120;3.702;2023-07-02T07:20:52;25.40;51.00
36690;DHT22;22676;51.120;3.702;2023-07-02T07:23:21;25.40;51.00
36690;DHT22;22676;51.120;3.702;2023-07-02T07:25:46;25.40;50.90
36690;DHT22;22676;51.120;3.702;2023-07-02T07:28:12;25.50;51.00
36690;DHT22;22676;51.120;3.702;2023-07-02T07:30:42;25.50;50.70
36690;DHT22;22676;51.120;3.702;2023-07-02T07:33:07;25.50;50.80
36690;DHT22;22676;51.120;3.702;2023-07-02T07:35:33;25.50;50.90
36690;DHT22;22676;51.120;3.702;2023-07-02T07:37:58;25.60;51.00
36690;DHT22;22676;51.120;3.702;2023-07-02T07:40:24;25.60;50.50
36690;DHT22;22676;51.120;3.702;2023-07-02T07:42:50;25.70;50.40
36690;DHT22;22676;51.120;3.702;2023-07-02T07:45:15;25.60;50.60
36690;DHT22;22676;51.120;3.702;2023-07-02T07:47:41;25.60;50.70
36690;DHT22;22676;51.120;3.702;2023-07-02T07:50:07;25.60;50.80
36690;DHT22;22676;51.120;3.702;2023-07-02T07:52:39;25.60;50.80
36690;DHT22;22676;51.120;3.702;2023-07-02T07:55:06;25.70;50.80
36690;DHT22;22676;51.120;3.702;2023-07-02T07:57:31;25.70;50.90
36690;DHT22;22676;51.120;3.702;2023-07-02T07:59:57;25.70;51.00
36690;DHT22;22676;51.120;3.702;2023-07-02T08:02:23;25.80;50.80
36690;DHT22;22676;51.120;3.702;2023-07-02T08:04:49;25.80;50.70
36690;DHT22;22676;51.120;3.702;2023-07-02T08:07:14;25.80;50.80
36690;DHT22;22676;51.120;3.702;2023-07-02T08:09:40;25.80;51.00
36690;DHT22;22676;51.120;3.702;2023-07-02T08:12:06;25.80;51.00
36690;DHT22;22676;51.120;3.702;2023-07-02T08:14:33;25.80;51.10
36690;DHT22;22676;51.120;3.702;2023-07-02T08:17:00;25.80;51.10
36690;DHT22;22676;51.120;3.702;2023-07-02T08:19:26;25.80;51.40
36690;DHT22;22676;51.120;3.702;2023-07-02T08:21:52;25.80;51.10
36690;DHT22;22676;51.120;3.702;2023-07-02T08:24:17;25.80;51.30
36690;DHT22;22676;51.120;3.702;2023-07-02T08:26:43;25.80;51.40
36690;DHT22;22676;51.120;3.702;2023-07-02T08:29:10;25.80;51.40
36690;DHT22;22676;51.120;3.702;2023-07-02T08:31:36;25.90;52.40
36690;DHT22;22676;51.120;3.702;2023-07-02T08:34:02;26.00;54.10
36690;DHT22;22676;51.120;3.702;2023-07-02T08:36:28;26.10;53.70
36690;DHT22;22676;51.120;3.702;2023-07-02T08:38:53;26.10;53.80
36690;DHT22;22676;51.120;3.702;2023-07-02T08:41:20;26.00;52.90
36690;DHT22;22676;51.120;3.702;2023-07-02T08:43:47;26.00;52.60
36690;DHT22;22676;51.120;3.702;2023-07-02T08:46:15;26.10;52.40
36690;DHT22;22676;51.120;3.702;2023-07-02T08:48:41;26.20;52.20
36690;DHT22;22676;51.120;3.702;2023-07-02T08:51:07;26.20;52.30
36690;DHT22;22676;51.120;3.702;2023-07-02T08:53:33;26.20;52.40
36690;DHT22;22676;51.120;3.702;2023-07-02T08:56:03;26.20;52.30
36690;DHT22;22676;51.120;3.702;2023-07-02T08:58:29;26.30;52.10
36690;DHT22;22676;51.120;3.702;2023-07-02T09:01:08;26.20;52.40
36690;DHT22;22676;51.120;3.702;2023-07-02T09:03:35;26.30;52.30
36690;DHT22;22676;51.120;3.702;2023-07-02T09:06:03;26.30;52.10
36690;DHT22;22676;51.120;3.702;2023-07-02T09:08:29;26.40;52.00
36690;DHT22;22676;51.120;3.702;2023-07-02T09:11:07;26.30;52.40
36690;DHT22;22676;51.120;3.702;2023-07-02T09:13:50;26.40;52.30
36690;DHT22;22676;51.120;3.702;2023-07-02T09:19:04;26.50;52.20
36690;DHT22;22676;51.120;3.702;2023-07-02T09:21:45;26.30;52.70
36690;DHT22;22676;51.120;3.702;2023-07-02T09:24:15;26.30;52.70
36690;DHT22;22676;51.120;3.702;2023-07-02T09:26:49;26.20;52.90
36690;DHT22;22676;51.120;3.702;2023-07-02T09:31:52;26.20;52.70
36690;DHT22;22676;51.120;3.702;2023-07-02T09:34:17;26.10;52.80
36690;DHT22;22676;51.120;3.702;2023-07-02T09:36:43;26.10;52.60
36690;DHT22;22676;51.120;3.702;2023-07-02T09:39:17;26.10;52.60
36690;DHT22;22676;51.120;3.702;2023-07-02T09:41:44;26.10;52.40
36690;DHT22;22676;51.120;3.702;2023-07-02T09:44:12;26.10;52.60
36690;DHT22;22676;51.120;3.702;2023-07-02T09:46:43;26.20;52.50
36690;DHT22;22676;51.120;3.702;2023-07-02T09:49:14;26.20;52.00
36690;DHT22;22676;51.120;3.702;2023-07-02T09:51:42;26.20;52.20
36690;DHT22;22676;51.120;3.702;2023-07-02T09:54:10;26.30;52.20
36690;DHT22;22676;51.120;3.702;2023-07-02T09:56:36;26.40;52.20
36690;DHT22;22676;51.120;3.702;2023-07-02T09:59:01;26.20;52.30
36690;DHT22;22676;51.120;3.702;2023-07-02T10:01:27;26.30;52.40
36690;DHT22;22676;51.120;3.702;2023-07-02T10:03:53;26.20;52.60
36690;DHT22;22676;51.120;3.702;2023-07-02T10:06:19;26.30;52.30
36690;DHT22;22676;51.120;3.702;2023-07-02T10:08:57;26.30;52.60
36690;DHT22;22676;51.120;3.702;2023-07-02T10:11:33;26.30;52.90
36690;DHT22;22676;51.120;3.702;2023-07-02T10:14:00;26.30;53.50
36690;DHT22;22676;51.120;3.702;2023-07-02T10:16:26;26.30;54.10
36690;DHT22;22676;51.120;3.702;2023-07-02T10:18:53;26.30;54.10
36690;DHT22;22676;51.120;3.702;2023-07-02T10:21:19;26.40;54.50
36690;DHT22;22676;51.120;3.702;2023-07-02T10:23:46;26.30;54.60
36690;DHT22;22676;51.120;3.702;2023-07-02T10:26:17;26.30;54.90
36690;DHT22;22676;51.120;3.702;2023-07-02T10:28:43;26.30;55.00
36690;DHT22;22676;51.120;3.702;2023-07-02T10:31:21;26.40;55.00
36690;DHT22;22676;51.120;3.702;2023-07-02T10:33:47;26.30;55.30
36690;DHT22;22676;51.120;3.702;2023-07-02T10:36:23;26.40;55.40
36690;DHT22;22676;51.120;3.702;2023-07-02T10:38:50;26.30;55.10
36690;DHT22;22676;51.120;3.702;2023-07-02T10:41:27;26.20;54.80
36690;DHT22;22676;51.120;3.702;2023-07-02T10:43:53;26.20;54.60
36690;DHT22;22676;51.120;3.702;2023-07-02T10:46:21;26.30;55.10
36690;DHT22;22676;51.120;3.702;2023-07-02T10:48:56;26.40;54.80
36690;DHT22;22676;51.120;3.702;2023-07-02T10:51:22;26.40;54.70
36690;DHT22;22676;51.120;3.702;2023-07-02T10:54:02;26.40;54.70
36690;DHT22;22676;51.120;3.702;2023-07-02T10:56:30;26.40;54.80
36690;DHT22;22676;51.120;3.702;2023-07-02T10:58:57;26.40;54.80
36690;DHT22;22676;51.120;3.702;2023-07-02T11:01:30;26.40;54.70
36690;DHT22;22676;51.120;3.702;2023-07-02T11:04:04;26.50;54.80
36690;DHT22;22676;51.120;3.702;2023-07-02T11:06:32;26.60;54.90
36690;DHT22;22676;51.120;3.702;2023-07-02T11:08:59;26.50;54.50
36690;DHT22;22676;51.120;3.702;2023-07-02T11:11:25;26.50;54.30
36690;DHT22;22676;51.120;3.702;2023-07-02T11:13:52;26.50;53.90
36690;DHT22;22676;51.120;3.702;2023-07-02T11:16:22;26.50;53.50
36690;DHT22;22676;51.120;3.702;2023-07-02T11:18:51;26.50;53.20
36690;DHT22;22676;51.120;3.702;2023-07-02T11:21:17;26.40;52.80
36690;DHT22;22676;51.120;3.702;2023-07-02T11:23:43;26.50;53.10
36690;DHT22;22676;51.120;3.702;2023-07-02T11:26:09;26.40;53.00
36690;DHT22;22676;51.120;3.702;2023-07-02T11:28:35;26.50;52.70
36690;DHT22;22676;51.120;3.702;2023-07-02T11:31:01;26.50;52.40
36690;DHT22;22676;51.120;3.702;2023-07-02T11:33:39;26.60;51.60
36690;DHT22;22676;51.120;3.702;2023-07-02T11:36:06;26.60;50.40
36690;DHT22;22676;51.120;3.702;2023-07-02T11:38:34;26.60;50.70
36690;DHT22;22676;51.120;3.702;2023-07-02T11:41:00;26.60;49.10
36690;DHT22;22676;51.120;3.702;2023-07-02T11:43:25;26.60;50.10
36690;DHT22;22676;51.120;3.702;2023-07-02T11:45:52;26.50;48.90
36690;DHT22;22676;51.120;3.702;2023-07-02T11:48:17;26.50;49.40
36690;DHT22;22676;51.120;3.702;2023-07-02T11:50:43;26.50;48.60
36690;DHT22;22676;51.120;3.702;2023-07-02T11:53:09;26.50;47.60
36690;DHT22;22676;51.120;3.702;2023-07-02T11:55:36;26.50;47.30
36690;DHT22;22676;51.120;3.702;2023-07-02T11:58:01;26.50;46.10
36690;DHT22;22676;51.120;3.702;2023-07-02T12:00:27;26.50;45.70
36690;DHT22;22676;51.120;3.702;2023-07-02T12:02:53;26.50;47.10
36690;DHT22;22676;51.120;3.702;2023-07-02T12:05:18;26.50;47.40
36690;DHT22;22676;51.120;3.702;2023-07-02T12:07:44;26.50;47.50
36690;DHT22;22676;51.120;3.702;2023-07-02T12:10:10;26.50;46.90
36690;DHT22;22676;51.120;3.702;2023-07-02T12:12:35;26.50;44.50
36690;DHT22;22676;51.120;3.702;2023-07-02T12:15:01;26.60;45.10
36690;DHT22;22676;51.120;3.702;2023-07-02T12:17:27;26.60;43.90
36690;DHT22;22676;51.120;3.702;2023-07-02T12:19:53;26.60;43.50
36690;DHT22;22676;51.120;3.702;2023-07-02T12:22:19;26.50;43.20
36690;DHT22;22676;51.120;3.702;2023-07-02T12:24:47;26.50;43.80
36690;DHT22;22676;51.120;3.702;2023-07-02T12:27:14;26.50;44.50
36690;DHT22;22676;51.120;3.702;2023-07-02T12:29:39;26.40;43.70
36690;DHT22;22676;51.120;3.702;2023-07-02T12:32:05;26.40;43.30
36690;DHT22;22676;51.120;3.702;2023-07-02T12:34:31;26.40;43.40
36690;DHT22;22676;51.120;3.702;2023-07-02T12:36:57;26.40;43.60
36690;DHT22;22676;51.120;3.702;2023-07-02T12:39:23;26.40;43.40
36690;DHT22;22676;51.120;3.702;2023-07-02T12:41:49;26.50;44.60
36690;DHT22;22676;51.120;3.702;2023-07-02T12:44:14;26.50;44.00
36690;DHT22;22676;51.120;3.702;2023-07-02T12:46:40;26.50;45.90
36690;DHT22;22676;51.120;3.702;2023-07-02T12:49:06;26.40;45.90
36690;DHT22;22676;51.120;3.702;2023-07-02T12:51:31;26.50;45.40
36690;DHT22;22676;51.120;3.702;2023-07-02T12:53:57;26.40;44.30
36690;DHT22;22676;51.120;3.702;2023-07-02T12:56:22;26.50;45.30
36690;DHT22;22676;51.120;3.702;2023-07-02T12:58:48;26.40;44.20
36690;DHT22;22676;51.120;3.702;2023-07-02T13:01:14;26.40;45.70
36690;DHT22;22676;51.120;3.702;2023-07-02T13:03:45;26.50;46.10
36690;DHT22;22676;51.120;3.702;2023-07-02T13:06:11;26.50;46.00
36690;DHT22;22676;51.120;3.702;2023-07-02T13:08:37;26.50;46.00
36690;DHT22;22676;51.120;3.702;2023-07-02T13:11:03;26.60;45.60
36690;DHT22;22676;51.120;3.702;2023-07-02T13:13:28;26.70;46.50
36690;DHT22;22676;51.120;3.702;2023-07-02T13:15:54;26.70;46.40
36690;DHT22;22676;51.120;3.702;2023-07-02T13:18:20;26.70;46.60
36690;DHT22;22676;51.120;3.702;2023-07-02T13:20:46;26.80;47.50
36690;DHT22;22676;51.120;3.702;2023-07-02T13:23:11;26.90;42.80
36690;DHT22;22676;51.120;3.702;2023-07-02T13:25:37;26.90;45.00
36690;DHT22;22676;51.120;3.702;2023-07-02T13:28:03;27.00;45.50
36690;DHT22;22676;51.120;3.702;2023-07-02T13:30:29;27.00;45.40
36690;DHT22;22676;51.120;3.702;2023-07-02T13:32:56;27.20;45.50
36690;DHT22;22676;51.120;3.702;2023-07-02T13:35:22;27.20;44.70
36690;DHT22;22676;51.120;3.702;2023-07-02T13:37:48;27.20;45.10
36690;DHT22;22676;51.120;3.702;2023-07-02T13:40:14;27.30;45.50
36690;DHT22;22676;51.120;3.702;2023-07-02T13:42:41;27.40;45.70
36690;DHT22;22676;51.120;3.702;2023-07-02T13:45:08;27.40;45.30
36690;DHT22;22676;51.120;3.702;2023-07-02T13:47:34;27.50;45.10
36690;DHT22;22676;51.120;3.702;2023-07-02T13:50:01;27.60;45.10
36690;DHT22;22676;51.120;3.702;2023-07-02T13:52:26;27.70;45.20
36690;DHT22;22676;51.120;3.702;2023-07-02T13:54:52;27.90;45.40
36690;DHT22;22676;51.120;3.702;2023-07-02T13:57:17;27.80;45.40
36690;DHT22;22676;51.120;3.702;2023-07-02T13:59:43;27.80;45.30
36690;DHT22;22676;51.120;3.702;2023-07-02T14:02:09;28.00;45.40
36690;DHT22;22676;51.120;3.702;2023-07-02T14:04:35;27.90;46.00
36690;DHT22;22676;51.120;3.702;2023-07-02T14:07:02;27.80;45.70
36690;DHT22;22676;51.120;3.702;2023-07-02T14:09:28;28.00;45.00
36690;DHT22;22676;51.120;3.702;2023-07-02T14:11:54;28.00;46.00
36690;DHT22;22676;51.120;3.702;2023-07-02T14:14:20;28.00;46.00
36690;DHT22;22676;51.120;3.702;2023-07-02T14:16:47;28.00;45.20
36690;DHT22;22676;51.120;3.702;2023-07-02T14:19:12;28.00;45.60
36690;DHT22;22676;51.120;3.702;2023-07-02T14:21:38;28.10;45.40
36690;DHT22;22676;51.120;3.702;2023-07-02T14:24:04;28.20;45.40
36690;DHT22;22676;51.120;3.702;2023-07-02T14:26:30;28.20;45.70
36690;DHT22;22676;51.120;3.702;2023-07-02T14:28:56;28.30;45.60
36690;DHT22;22676;51.120;3.702;2023-07-02T14:31:23;28.30;46.00
36690;DHT22;22676;51.120;3.702;2023-07-02T14:33:49;28.20;45.60
36690;DHT22;22676;51.120;3.702;2023-07-02T14:36:15;28.30;45.50
36690;DHT22;22676;51.120;3.702;2023-07-02T14:38:41;28.30;45.30
36690;DHT22;22676;51.120;3.702;2023-07-02T14:41:06;28.40;45.40
36690;DHT22;22676;51.120;3.702;2023-07-02T14:43:32;28.40;44.40
36690;DHT22;22676;51.120;3.702;2023-07-02T14:45:59;28.40;44.50
36690;DHT22;22676;51.120;3.702;2023-07-02T14:48:25;28.40;44.60
36690;DHT22;22676;51.120;3.702;2023-07-02T14:50:56;28.40;43.80
36690;DHT22;22676;51.120;3.702;2023-07-02T14:53:23;28.40;43.60
36690;DHT22;22676;51.120;3.702;2023-07-02T14:55:49;28.40;44.10
36690;DHT22;22676;51.120;3.702;2023-07-02T14:58:16;28.40;43.60
36690;DHT22;22676;51.120;3.702;2023-07-02T15:00:52;28.40;44.50
36690;DHT22;22676;51.120;3.702;2023-07-02T15:03:19;28.40;44.10
36690;DHT22;22676;51.120;3.702;2023-07-02T15:05:47;28.30;43.80
36690;DHT22;22676;51.120;3.702;2023-07-02T15:08:13;28.30;43.90
36690;DHT22;22676;51.120;3.702;2023-07-02T15:10:39;28.20;43.20
36690;DHT22;22676;51.120;3.702;2023-07-02T15:13:09;28.20;43.30
36690;DHT22;22676;51.120;3.702;2023-07-02T15:15:35;28.20;43.50
36690;DHT22;22676;51.120;3.702;2023-07-02T15:18:02;28.10;42.40
36690;DHT22;22676;51.120;3.702;2023-07-02T15:20:28;28.10;42.50
36690;DHT22;22676;51.120;3.702;2023-07-02T15:22:54;28.00;42.90
36690;DHT22;22676;51.120;3.702;2023-07-02T15:25:20;27.90;43.10
36690;DHT22;22676;51.120;3.702;2023-07-02T15:27:46;28.00;42.70
36690;DHT22;22676;51.120;3.702;2023-07-02T15:30:12;27.90;41.70
36690;DHT22;22676;51.120;3.702;2023-07-02T15:32:38;27.90;41.70